createdAt,value
2024-01-30T00:00:02.600Z,100527.00
2024-01-30T00:02:33.737Z,100529.88
2024-01-30T00:05:01.547Z,100510.63
2024-01-30T00:07:29.247Z,100506.53
2024-01-30T00:09:56.606Z,100503.34
2024-01-30T00:12:23.781Z,100504.44
2024-01-30T00:14:54.928Z,100478.97
2024-01-30T00:17:22.907Z,100493.31
2024-01-30T00:19:50.273Z,100509.72
2024-01-30T00:22:18.624Z,100494.03
2024-01-30T00:24:45.945Z,100509.22
2024-01-30T00:27:13.255Z,100497.50
2024-01-30T00:29:40.338Z,100497.97
2024-01-30T00:32:07.841Z,100513.19
2024-01-30T00:34:35.364Z,100507.00
2024-01-30T00:37:08.819Z,100499.66
2024-01-30T00:39:36.502Z,100508.19
2024-01-30T00:42:03.856Z,100508.03
2024-01-30T00:44:31.245Z,100483.25
2024-01-30T00:46:58.446Z,100500.75
2024-01-30T00:49:25.719Z,100491.09
2024-01-30T00:51:54.615Z,100489.59
2024-01-30T00:54:21.848Z,100476.69
2024-01-30T00:56:49.031Z,100464.88
2024-01-30T00:59:16.389Z,100497.34
2024-01-30T01:01:43.587Z,100491.97
2024-01-30T01:04:10.959Z,100487.72
2024-01-30T01:06:38.300Z,100488.09
2024-01-30T01:09:09.933Z,100477.69
2024-01-30T01:11:47.846Z,100491.69
2024-01-30T01:14:14.991Z,100483.13
2024-01-30T01:16:42.123Z,100480.84
2024-01-30T01:19:09.664Z,100473.78
2024-01-30T01:21:36.901Z,100486.72
2024-01-30T01:24:05.156Z,100467.00
2024-01-30T01:26:32.489Z,100478.16
2024-01-30T01:28:59.680Z,100455.50
2024-01-30T01:31:30.909Z,100477.81
2024-01-30T01:33:58.579Z,100474.34
2024-01-30T01:36:25.933Z,100486.66
2024-01-30T01:38:53.107Z,100466.25
2024-01-30T01:41:20.457Z,100471.06
2024-01-30T01:43:47.618Z,100464.47
2024-01-30T01:46:15.072Z,100462.00
2024-01-30T01:48:44.585Z,100472.50
2024-01-30T01:51:12.081Z,100463.97
2024-01-30T01:53:39.594Z,100457.78
2024-01-30T01:56:07.678Z,100446.47
2024-01-30T01:58:34.826Z,100470.72
2024-01-30T02:01:03.457Z,100456.91
2024-01-30T02:03:31.905Z,100453.00
2024-01-30T02:05:59.925Z,100443.63
2024-01-30T02:08:27.830Z,100457.56
2024-01-30T02:10:55.156Z,100449.88
2024-01-30T02:13:22.881Z,100433.09
2024-01-30T02:15:51.902Z,100439.00
2024-01-30T02:18:21.920Z,100436.19
2024-01-30T02:21:06.427Z,100441.34
2024-01-30T02:23:35.404Z,100431.78
2024-01-30T02:26:03.507Z,100440.97
2024-01-30T02:28:30.593Z,100440.78
2024-01-30T02:30:57.657Z,100427.44
2024-01-30T02:33:24.997Z,100429.31
2024-01-30T02:35:52.591Z,100446.06
2024-01-30T02:38:20.002Z,100442.63
2024-01-30T02:40:47.178Z,100445.44
2024-01-30T02:43:14.514Z,100447.41
2024-01-30T02:45:41.863Z,100447.41
2024-01-30T02:48:09.784Z,100430.56
2024-01-30T02:50:37.028Z,100431.00
2024-01-30T02:53:04.307Z,100420.13
2024-01-30T02:55:31.781Z,100430.66
2024-01-30T02:57:59.148Z,100444.84
2024-01-30T03:00:26.872Z,100444.94
2024-01-30T03:02:54.100Z,100441.63
2024-01-30T03:05:21.458Z,100421.13
2024-01-30T03:07:48.681Z,100445.91
2024-01-30T03:10:15.914Z,100424.06
2024-01-30T03:12:43.375Z,100427.97
2024-01-30T03:15:11.188Z,100427.16
2024-01-30T03:17:38.574Z,100442.59
2024-01-30T03:20:07.791Z,100435.09
2024-01-30T03:22:35.273Z,100465.53
2024-01-30T03:25:02.516Z,100446.72
2024-01-30T03:27:32.707Z,100452.69
2024-01-30T03:29:59.846Z,100461.31
2024-01-30T03:32:27.524Z,100456.00
2024-01-30T03:34:55.483Z,100439.94
2024-01-30T03:37:22.936Z,100445.63
2024-01-30T03:39:50.194Z,100459.72
2024-01-30T03:42:17.482Z,100452.59
2024-01-30T03:44:44.678Z,100448.03
2024-01-30T03:47:11.841Z,100456.16
2024-01-30T03:49:39.203Z,100463.28
2024-01-30T03:52:06.724Z,100459.53
2024-01-30T03:54:34.339Z,100455.50
2024-01-30T03:57:01.455Z,100458.09
2024-01-30T03:59:29.100Z,100454.66
2024-01-30T04:01:56.673Z,100455.25
2024-01-30T04:04:25.497Z,100456.13
2024-01-30T04:06:53.061Z,100457.38
2024-01-30T04:09:20.403Z,100465.59
2024-01-30T04:11:47.529Z,100459.81
2024-01-30T04:14:14.772Z,100470.94
2024-01-30T04:16:42.027Z,100464.88
2024-01-30T04:19:09.352Z,100457.38
2024-01-30T04:21:36.655Z,100473.34
2024-01-30T04:24:03.964Z,100437.69
2024-01-30T04:26:32.229Z,100474.31
2024-01-30T04:28:59.535Z,100469.22
2024-01-30T04:31:26.854Z,100475.56
2024-01-30T04:33:54.166Z,100474.00
2024-01-30T04:36:21.493Z,100453.06
2024-01-30T04:38:49.056Z,100458.56
2024-01-30T04:41:16.372Z,100468.47
2024-01-30T04:43:43.485Z,100462.31
2024-01-30T04:46:10.741Z,100445.09
2024-01-30T04:48:38.161Z,100437.41
2024-01-30T04:51:06.547Z,100452.31
2024-01-30T04:53:33.770Z,100468.00
2024-01-30T04:56:01.075Z,100463.63
2024-01-30T04:58:28.503Z,100457.63
2024-01-30T05:00:56.274Z,100460.50
2024-01-30T05:03:25.490Z,100471.56
2024-01-30T05:05:52.784Z,100469.94
2024-01-30T05:08:20.361Z,100489.06
2024-01-30T05:10:47.703Z,100472.72
2024-01-30T05:13:15.395Z,100478.94
2024-01-30T05:15:43.227Z,100485.19
2024-01-30T05:18:10.677Z,100466.97
2024-01-30T05:20:38.090Z,100482.84
2024-01-30T05:23:05.233Z,100480.25
2024-01-30T05:25:33.582Z,100476.94
2024-01-30T05:28:01.108Z,100491.69
2024-01-30T05:30:28.498Z,100463.50
2024-01-30T05:32:55.869Z,100473.72
2024-01-30T05:35:23.290Z,100471.69
2024-01-30T05:37:51.392Z,100458.66
2024-01-30T05:40:19.200Z,100471.94
2024-01-30T05:42:49.022Z,100460.44
2024-01-30T05:45:16.284Z,100480.84
2024-01-30T05:47:43.650Z,100469.75
2024-01-30T05:50:11.224Z,100466.19
2024-01-30T05:52:38.423Z,100469.28
2024-01-30T05:55:07.175Z,100454.94
2024-01-30T05:57:34.713Z,100482.16
2024-01-30T06:00:02.266Z,100476.09
2024-01-30T06:02:33.285Z,100489.09
2024-01-30T06:05:00.565Z,100488.78
2024-01-30T06:07:27.941Z,100493.66
2024-01-30T06:09:55.380Z,100478.59
2024-01-30T06:12:23.706Z,100491.06
2024-01-30T06:14:51.395Z,100496.16
2024-01-30T06:17:18.628Z,100507.84
2024-01-30T06:19:46.467Z,100506.97
2024-01-30T06:22:14.044Z,100482.31
2024-01-30T06:24:41.580Z,100494.97
2024-01-30T06:27:10.743Z,100508.31
2024-01-30T06:29:38.125Z,100484.41
2024-01-30T06:32:06.106Z,100495.13
2024-01-30T06:34:33.317Z,100493.00
2024-01-30T06:37:00.830Z,100493.34
2024-01-30T06:39:28.435Z,100497.81
2024-01-30T06:41:55.634Z,100510.28
2024-01-30T06:44:22.790Z,100508.50
2024-01-30T06:46:49.993Z,100507.94
2024-01-30T06:49:17.966Z,100511.50
2024-01-30T06:51:45.345Z,100515.06
2024-01-30T06:54:12.430Z,100499.91
2024-01-30T06:56:40.031Z,100515.25
2024-01-30T06:59:07.332Z,100515.31
2024-01-30T07:01:35.004Z,100517.19
2024-01-30T07:04:05.268Z,100513.22
2024-01-30T07:06:32.461Z,100519.75
2024-01-30T07:08:59.555Z,100515.22
2024-01-30T07:11:26.954Z,100528.28
2024-01-30T07:13:55.538Z,100521.06
2024-01-30T07:16:23.768Z,100530.31
2024-01-30T07:18:51.579Z,100540.75
2024-01-30T07:21:18.925Z,100528.66
2024-01-30T07:23:46.011Z,100526.75
2024-01-30T07:26:14.079Z,100535.66
2024-01-30T07:28:41.679Z,100531.25
2024-01-30T07:31:08.969Z,100513.28
2024-01-30T07:33:36.482Z,100537.25
2024-01-30T07:36:03.707Z,100528.00
2024-01-30T07:38:35.856Z,100534.75
2024-01-30T07:41:03.109Z,100530.47
2024-01-30T07:43:30.510Z,100520.09
2024-01-30T07:45:57.721Z,100535.22
2024-01-30T07:48:24.984Z,100534.19
2024-01-30T07:50:53.166Z,100534.19
2024-01-30T07:53:20.966Z,100546.66
2024-01-30T07:55:48.434Z,100543.41
2024-01-30T07:58:15.735Z,100539.84
2024-01-30T08:00:43.136Z,100538.38
2024-01-30T08:03:11.572Z,100539.13
2024-01-30T08:05:40.553Z,100551.53
2024-01-30T08:08:08.422Z,100543.56
2024-01-30T08:10:35.619Z,100531.59
2024-01-30T08:13:03.189Z,100544.66
2024-01-30T08:15:31.415Z,100525.69
2024-01-30T08:18:00.211Z,100528.28
2024-01-30T08:20:27.801Z,100531.97
2024-01-30T08:22:54.961Z,100534.16
2024-01-30T08:25:23.187Z,100540.41
2024-01-30T08:27:50.741Z,100528.91
2024-01-30T08:30:18.263Z,100528.06
2024-01-30T08:32:45.540Z,100526.28
2024-01-30T08:35:15.372Z,100528.25
2024-01-30T08:37:42.680Z,100526.63
2024-01-30T08:40:12.458Z,100531.06
2024-01-30T08:42:39.719Z,100530.47
2024-01-30T08:45:07.326Z,100533.22
2024-01-30T08:47:34.902Z,100525.44
2024-01-30T08:50:02.413Z,100515.03
2024-01-30T08:52:34.679Z,100527.19
2024-01-30T08:55:02.049Z,100519.78
2024-01-30T08:57:31.887Z,100513.75
2024-01-30T08:59:59.258Z,100519.19
2024-01-30T09:02:26.593Z,100517.84
2024-01-30T09:04:54.136Z,100522.22
2024-01-30T09:07:21.602Z,100526.75
2024-01-30T09:09:48.701Z,100508.94
2024-01-30T09:12:16.075Z,100534.25
2024-01-30T09:14:43.615Z,100521.28
2024-01-30T09:17:11.164Z,100514.97
2024-01-30T09:19:38.576Z,100535.19
2024-01-30T09:22:06.078Z,100529.28
2024-01-30T09:24:33.504Z,100536.47
2024-01-30T09:27:00.703Z,100523.34
2024-01-30T09:29:28.904Z,100519.34
2024-01-30T09:31:56.321Z,100541.59
2024-01-30T09:34:23.540Z,100518.66
2024-01-30T09:36:50.975Z,100526.00
2024-01-30T09:39:18.249Z,100531.94
2024-01-30T09:42:21.294Z,100532.09
2024-01-30T09:44:51.951Z,100521.28
2024-01-30T09:47:19.540Z,100520.38
2024-01-30T09:49:47.366Z,100531.13
2024-01-30T09:52:16.539Z,100520.22
2024-01-30T09:54:46.288Z,100527.53
2024-01-30T09:57:13.620Z,100515.78
2024-01-30T09:59:40.751Z,100518.25
2024-01-30T10:02:09.269Z,100507.53
2024-01-30T10:04:37.492Z,100509.25
2024-01-30T10:07:05.339Z,100512.22
2024-01-30T10:09:38.453Z,100508.97
2024-01-30T10:12:07.304Z,100482.59
2024-01-30T10:14:34.586Z,100505.53
2024-01-30T10:17:05.337Z,100514.22
2024-01-30T10:19:34.294Z,100500.22
2024-01-30T10:22:01.773Z,100510.72
2024-01-30T10:24:30.593Z,100529.75
2024-01-30T10:26:58.142Z,100534.09
2024-01-30T10:29:26.410Z,100510.13
2024-01-30T10:32:03.965Z,100524.53
2024-01-30T10:34:32.442Z,100530.31
2024-01-30T10:37:16.649Z,100508.50
2024-01-30T10:39:48.075Z,100519.56
2024-01-30T10:42:18.451Z,100523.94
2024-01-30T10:44:54.380Z,100508.91
2024-01-30T10:47:27.869Z,100527.38
2024-01-30T10:49:58.726Z,100522.75
2024-01-30T10:52:27.722Z,100509.41
2024-01-30T10:54:56.586Z,100521.94
2024-01-30T10:57:25.577Z,100524.69
2024-01-30T10:59:56.656Z,100510.75
2024-01-30T11:02:25.290Z,100533.50
2024-01-30T11:04:58.743Z,100523.28
2024-01-30T11:07:29.121Z,100517.78
2024-01-30T11:09:59.578Z,100522.16
2024-01-30T11:12:26.955Z,100522.31
2024-01-30T11:15:10.969Z,100508.00
2024-01-30T11:17:47.223Z,100526.34
2024-01-30T11:20:33.505Z,100531.06
2024-01-30T11:23:07.250Z,100519.41
2024-01-30T11:25:34.849Z,100524.38
2024-01-30T11:28:03.425Z,100534.03
2024-01-30T11:30:32.632Z,100517.25
2024-01-30T11:33:08.291Z,100532.41
2024-01-30T11:35:38.111Z,100502.34
2024-01-30T11:38:06.310Z,100515.63
2024-01-30T11:40:35.431Z,100522.09
2024-01-30T11:43:04.678Z,100524.69
2024-01-30T11:45:32.752Z,100518.09
2024-01-30T11:48:05.520Z,100531.84
2024-01-30T11:50:39.416Z,100527.06
2024-01-30T11:53:08.091Z,100526.75
2024-01-30T11:55:37.140Z,100514.31
2024-01-30T11:58:07.962Z,100544.16
2024-01-30T12:00:36.761Z,100534.72
2024-01-30T12:03:04.991Z,100547.53
2024-01-30T12:05:32.933Z,100539.38
2024-01-30T12:08:02.010Z,100554.78
2024-01-30T12:10:30.549Z,100548.44
2024-01-30T12:12:59.151Z,100569.22
2024-01-30T12:15:27.092Z,100558.69
2024-01-30T12:18:06.209Z,100546.94
2024-01-30T12:20:33.733Z,100552.06
2024-01-30T12:23:01.523Z,100560.59
2024-01-30T12:25:28.922Z,100561.34
2024-01-30T12:27:56.573Z,100540.09
2024-01-30T12:30:25.284Z,100568.38
2024-01-30T12:32:53.103Z,100552.88
2024-01-30T12:35:22.433Z,100559.84
2024-01-30T12:37:52.040Z,100555.56
2024-01-30T12:40:20.378Z,100562.63
2024-01-30T12:42:53.548Z,100562.69
2024-01-30T12:45:24.042Z,100550.94
2024-01-30T12:47:53.200Z,100576.41
2024-01-30T12:50:21.020Z,100561.63
2024-01-30T12:52:50.035Z,100558.06
2024-01-30T12:55:19.372Z,100559.69
2024-01-30T12:57:47.577Z,100548.06
2024-01-30T13:00:15.673Z,100552.88
2024-01-30T13:02:44.084Z,100558.97
2024-01-30T13:05:11.534Z,100560.09
2024-01-30T13:07:39.608Z,100578.03
2024-01-30T13:10:08.104Z,100571.88
2024-01-30T13:12:35.691Z,100579.81
2024-01-30T13:15:05.086Z,100583.06
2024-01-30T13:17:35.869Z,100589.25
2024-01-30T13:20:09.955Z,100578.84
2024-01-30T13:22:40.722Z,100577.06
2024-01-30T13:25:08.912Z,100586.47
2024-01-30T13:27:38.927Z,100578.03
2024-01-30T13:30:08.281Z,100582.28
2024-01-30T13:32:35.525Z,100575.63
2024-01-30T13:35:02.834Z,100589.00
2024-01-30T13:37:32.822Z,100585.53
2024-01-30T13:40:02.381Z,100576.63
2024-01-30T13:42:31.911Z,100580.91
2024-01-30T13:44:59.052Z,100560.50
2024-01-30T13:47:26.501Z,100588.03
2024-01-30T13:49:54.350Z,100577.56
2024-01-30T13:52:26.083Z,100573.69
2024-01-30T13:54:56.483Z,100585.72
2024-01-30T13:57:23.792Z,100580.59
2024-01-30T13:59:51.006Z,100578.81
2024-01-30T14:02:18.346Z,100587.25
2024-01-30T14:04:47.461Z,100584.44
2024-01-30T14:07:15.380Z,100598.22
2024-01-30T14:09:43.002Z,100596.75
2024-01-30T14:12:10.173Z,100592.88
2024-01-30T14:14:37.505Z,100609.66
2024-01-30T14:17:07.460Z,100606.66
2024-01-30T14:19:37.323Z,100596.84
2024-01-30T14:22:04.925Z,100617.84
2024-01-30T14:24:32.160Z,100618.66
2024-01-30T14:27:00.911Z,100610.41
2024-01-30T14:29:28.922Z,100617.06
2024-01-30T14:31:57.055Z,100617.06
2024-01-30T14:34:24.339Z,100608.63
2024-01-30T14:36:51.707Z,100596.28
2024-01-30T14:39:19.761Z,100630.81
2024-01-30T14:41:46.943Z,100619.41
2024-01-30T14:44:15.228Z,100618.81
2024-01-30T14:46:42.894Z,100617.06
2024-01-30T14:49:11.243Z,100627.44
2024-01-30T14:51:39.260Z,100611.38
2024-01-30T14:54:06.438Z,100634.22
2024-01-30T14:56:34.277Z,100628.09
2024-01-30T14:59:01.706Z,100626.13
2024-01-30T15:01:29.891Z,100627.91
2024-01-30T15:03:57.221Z,100625.50
2024-01-30T15:06:26.171Z,100634.22
2024-01-30T15:08:54.358Z,100620.13
2024-01-30T15:11:22.223Z,100630.59
2024-01-30T15:13:50.436Z,100635.13
2024-01-30T15:16:17.803Z,100635.69
2024-01-30T15:18:45.266Z,100626.78
2024-01-30T15:21:12.995Z,100628.56
2024-01-30T15:23:40.412Z,100644.13
2024-01-30T15:26:08.950Z,100645.91
2024-01-30T15:28:40.279Z,100634.66
2024-01-30T15:31:08.073Z,100642.34
2024-01-30T15:33:35.664Z,100647.63
2024-01-30T15:36:03.914Z,100652.00
2024-01-30T15:38:31.262Z,100663.34
2024-01-30T15:41:00.026Z,100639.91
2024-01-30T15:43:27.652Z,100663.28
2024-01-30T15:45:55.444Z,100655.81
2024-01-30T15:48:22.910Z,100654.03
2024-01-30T15:50:50.241Z,100665.81
2024-01-30T15:53:17.772Z,100658.09
2024-01-30T15:55:45.200Z,100663.84
2024-01-30T15:58:12.960Z,100667.25
2024-01-30T16:00:40.203Z,100659.53
2024-01-30T16:03:07.496Z,100655.97
2024-01-30T16:05:34.662Z,100666.19
2024-01-30T16:08:01.907Z,100664.56
2024-01-30T16:10:30.594Z,100676.00
2024-01-30T16:12:58.287Z,100655.31
2024-01-30T16:15:26.580Z,100679.25
2024-01-30T16:17:53.827Z,100664.88
2024-01-30T16:20:21.499Z,100671.38
2024-01-30T16:22:55.820Z,100661.50
2024-01-30T16:25:24.814Z,100671.06
2024-01-30T16:27:52.478Z,100681.56
2024-01-30T16:30:19.820Z,100679.78
2024-01-30T16:32:47.472Z,100669.34
2024-01-30T16:35:16.254Z,100658.72
2024-01-30T16:37:44.696Z,100664.72
2024-01-30T16:40:12.160Z,100665.50
2024-01-30T16:42:39.722Z,100670.88
2024-01-30T16:45:07.276Z,100663.75
2024-01-30T16:48:00.656Z,100669.41
2024-01-30T16:50:28.066Z,100677.22
2024-01-30T16:52:55.659Z,100678.81
2024-01-30T16:55:24.129Z,100675.06
2024-01-30T16:57:51.558Z,100676.66
2024-01-30T17:00:20.938Z,100668.84
2024-01-30T17:02:49.648Z,100687.03
2024-01-30T17:05:23.828Z,100669.69
2024-01-30T17:07:56.291Z,100690.63
2024-01-30T17:10:25.411Z,100682.75
2024-01-30T17:12:52.992Z,100672.78
2024-01-30T17:15:44.826Z,100669.94
2024-01-30T17:18:12.351Z,100677.41
2024-01-30T17:20:40.437Z,100674.56
2024-01-30T17:23:09.248Z,100662.06
2024-01-30T17:26:02.550Z,100679.13
2024-01-30T17:28:29.912Z,100689.41
2024-01-30T17:30:57.340Z,100694.59
2024-01-30T17:33:24.477Z,100674.38
2024-01-30T17:35:56.166Z,100662.06
2024-01-30T17:38:23.336Z,100693.19
2024-01-30T17:41:02.731Z,100687.13
2024-01-30T17:43:37.159Z,100678.00
2024-01-30T17:46:05.589Z,100691.56
2024-01-30T17:48:33.003Z,100679.97
2024-01-30T17:51:03.986Z,100696.91
2024-01-30T17:53:31.320Z,100671.38
2024-01-30T17:56:02.705Z,100674.59
2024-01-30T17:58:30.044Z,100664.22
2024-01-30T18:00:59.156Z,100686.22
2024-01-30T18:03:26.597Z,100683.44
2024-01-30T18:05:55.487Z,100671.81
2024-01-30T18:08:24.689Z,100675.16
2024-01-30T18:10:53.793Z,100687.66
2024-01-30T18:13:22.366Z,100664.44
2024-01-30T18:15:49.928Z,100686.56
2024-01-30T18:18:17.613Z,100672.38
2024-01-30T18:20:46.243Z,100662.41
2024-01-30T18:23:14.489Z,100671.59
2024-01-30T18:25:42.072Z,100661.03
2024-01-30T18:28:10.161Z,100655.50
2024-01-30T18:30:37.681Z,100654.53
2024-01-30T18:33:06.191Z,100676.91
2024-01-30T18:35:35.078Z,100674.81
2024-01-30T18:38:04.916Z,100681.06
2024-01-30T18:40:32.265Z,100680.16
2024-01-30T18:43:04.775Z,100682.00
2024-01-30T18:45:33.264Z,100685.50
2024-01-30T18:48:00.674Z,100674.97
2024-01-30T18:50:27.984Z,100668.19
2024-01-30T18:52:55.384Z,100673.00
2024-01-30T18:55:22.696Z,100669.44
2024-01-30T18:57:50.451Z,100656.78
2024-01-30T19:00:18.119Z,100666.75
2024-01-30T19:02:45.356Z,100671.03
2024-01-30T19:05:12.999Z,100669.13
2024-01-30T19:07:40.714Z,100671.22
2024-01-30T19:10:09.756Z,100670.88
2024-01-30T19:12:39.122Z,100670.88
2024-01-30T19:15:10.827Z,100664.28
2024-01-30T19:17:38.445Z,100657.22
2024-01-30T19:20:09.627Z,100662.41
2024-01-30T19:22:40.034Z,100643.38
2024-01-30T19:25:08.091Z,100652.50
2024-01-30T19:27:35.324Z,100652.34
2024-01-30T19:30:02.502Z,100648.56
2024-01-30T19:32:31.438Z,100660.16
2024-01-30T19:34:58.994Z,100649.22
2024-01-30T19:37:27.217Z,100670.00
2024-01-30T19:39:54.776Z,100667.16
2024-01-30T19:42:21.985Z,100681.28
2024-01-30T19:44:49.298Z,100676.72
2024-01-30T19:47:16.501Z,100673.22
2024-01-30T19:49:43.944Z,100682.44
2024-01-30T19:52:11.379Z,100685.91
2024-01-30T19:54:40.295Z,100691.09
2024-01-30T19:57:08.536Z,100679.69
2024-01-30T19:59:35.722Z,100665.72
2024-01-30T20:02:04.776Z,100651.34
2024-01-30T20:04:32.236Z,100662.06
2024-01-30T20:07:00.731Z,100654.75
2024-01-30T20:09:29.307Z,100683.94
2024-01-30T20:11:56.477Z,100683.75
2024-01-30T20:14:23.673Z,100675.66
2024-01-30T20:16:50.765Z,100658.94
2024-01-30T20:19:18.892Z,100676.72
2024-01-30T20:21:48.319Z,100658.75
2024-01-30T20:24:15.645Z,100646.25
2024-01-30T20:26:42.878Z,100664.84
2024-01-30T20:29:10.457Z,100668.06
2024-01-30T20:31:38.069Z,100675.53
2024-01-30T20:34:05.493Z,100658.75
2024-01-30T20:36:32.866Z,100656.22
2024-01-30T20:39:00.273Z,100646.59
2024-01-30T20:41:28.216Z,100678.19
2024-01-30T20:43:55.616Z,100671.84
2024-01-30T20:46:22.981Z,100675.16
2024-01-30T20:48:50.485Z,100676.72
2024-01-30T20:51:18.960Z,100674.06
2024-01-30T20:53:46.409Z,100664.16
2024-01-30T20:56:15.416Z,100661.16
2024-01-30T20:58:42.888Z,100664.75
2024-01-30T21:01:12.720Z,100671.09
2024-01-30T21:03:41.093Z,100676.88
2024-01-30T21:06:10.677Z,100668.78
2024-01-30T21:08:38.467Z,100674.72
2024-01-30T21:11:07.671Z,100690.25
2024-01-30T21:13:35.065Z,100672.38
2024-01-30T21:16:02.309Z,100677.03
2024-01-30T21:18:29.960Z,100673.66
2024-01-30T21:20:58.548Z,100687.47
2024-01-30T21:23:25.901Z,100667.59
2024-01-30T21:25:53.477Z,100671.16
2024-01-30T21:28:21.601Z,100671.63
2024-01-30T21:30:48.836Z,100671.72
2024-01-30T21:33:16.332Z,100661.88
2024-01-30T21:35:43.949Z,100669.84
2024-01-30T21:38:11.233Z,100668.16
2024-01-30T21:40:39.145Z,100671.09
2024-01-30T21:43:06.432Z,100654.22
2024-01-30T21:45:33.788Z,100666.72
2024-01-30T21:48:02.090Z,100664.50
2024-01-30T21:50:29.624Z,100665.31
2024-01-30T21:52:56.785Z,100655.16
2024-01-30T21:55:24.293Z,100660.44
2024-01-30T21:57:51.414Z,100660.50
2024-01-30T22:00:19.413Z,100638.81
2024-01-30T22:02:47.631Z,100644.97
2024-01-30T22:05:15.186Z,100638.19
2024-01-30T22:07:43.288Z,100614.97
2024-01-30T22:10:11.356Z,100643.81
2024-01-30T22:12:39.615Z,100647.84
2024-01-30T22:15:08.862Z,100647.31
2024-01-30T22:17:36.275Z,100636.88
2024-01-30T22:20:05.765Z,100618.47
2024-01-30T22:22:34.819Z,100615.63
2024-01-30T22:25:03.616Z,100638.94
2024-01-30T22:27:31.895Z,100624.84
2024-01-30T22:29:59.236Z,100632.59
2024-01-30T22:32:26.631Z,100613.75
2024-01-30T22:34:54.002Z,100607.84
2024-01-30T22:37:21.373Z,100625.91
2024-01-30T22:39:48.797Z,100619.81
2024-01-30T22:42:15.937Z,100625.91
2024-01-30T22:44:43.289Z,100618.66
2024-01-30T22:47:10.745Z,100628.59
2024-01-30T22:49:38.194Z,100608.13
2024-01-30T22:52:06.120Z,100620.72
2024-01-30T22:54:33.358Z,100621.78
2024-01-30T22:57:00.604Z,100609.31
2024-01-30T22:59:27.976Z,100606.78
2024-01-30T23:01:55.365Z,100625.19
2024-01-30T23:04:22.645Z,100619.47
2024-01-30T23:06:50.080Z,100633.75
2024-01-30T23:09:18.050Z,100627.59
2024-01-30T23:11:45.962Z,100618.47
2024-01-30T23:14:13.328Z,100618.03
2024-01-30T23:16:40.647Z,100630.56
2024-01-30T23:19:08.243Z,100618.22
2024-01-30T23:21:35.470Z,100615.19
2024-01-30T23:24:02.980Z,100604.38
2024-01-30T23:26:30.375Z,100606.06
2024-01-30T23:28:58.994Z,100597.25
2024-01-30T23:31:26.187Z,100605.91
2024-01-30T23:33:53.512Z,100615.25
2024-01-30T23:36:22.408Z,100618.56
2024-01-30T23:38:49.781Z,100614.09
2024-01-30T23:41:17.172Z,100622.88
2024-01-30T23:43:44.524Z,100613.03
2024-01-30T23:46:11.970Z,100610.78
2024-01-30T23:48:39.537Z,100618.53
2024-01-30T23:51:06.883Z,100602.66
2024-01-30T23:53:35.868Z,100608.81
2024-01-30T23:56:03.187Z,100607.28
2024-01-30T23:58:30.743Z,100593.34
